createdAt,value
2022-11-02T00:00:28.232Z,13.93
2022-11-02T00:02:57.875Z,21.73
2022-11-02T00:05:26.775Z,14.13
2022-11-02T00:07:55.966Z,13.43
2022-11-02T00:10:25.011Z,14.23
2022-11-02T00:12:53.811Z,10.95
2022-11-02T00:15:23.923Z,16.25
2022-11-02T00:17:55.729Z,11.75
2022-11-02T00:20:24.177Z,11.77
2022-11-02T00:22:56.825Z,14.13
2022-11-02T00:25:30.734Z,16.30
2022-11-02T00:27:58.919Z,13.52
2022-11-02T00:30:27.139Z,18.38
2022-11-02T00:32:59.062Z,13.55
2022-11-02T00:35:27.742Z,12.00
2022-11-02T00:37:59.022Z,23.42
2022-11-02T00:40:27.278Z,13.25
2022-11-02T00:42:56.026Z,16.83
2022-11-02T00:45:24.178Z,17.88
2022-11-02T00:47:52.627Z,15.13
2022-11-02T00:50:20.897Z,16.35
2022-11-02T00:52:49.206Z,15.43
2022-11-02T00:55:18.203Z,13.40
2022-11-02T00:57:46.517Z,15.82
2022-11-02T01:00:15.443Z,21.95
2022-11-02T01:02:44.016Z,15.98
2022-11-02T01:05:12.690Z,17.13
2022-11-02T01:07:41.627Z,16.42
2022-11-02T01:10:11.048Z,16.63
2022-11-02T01:12:40.258Z,12.00
2022-11-02T01:15:12.464Z,17.35
2022-11-02T01:17:40.650Z,12.10
2022-11-02T01:20:09.862Z,17.67
2022-11-02T01:22:38.126Z,14.88
2022-11-02T01:25:07.950Z,16.17
2022-11-02T01:27:36.251Z,20.10
2022-11-02T01:30:06.082Z,15.30
2022-11-02T01:32:34.307Z,15.43
2022-11-02T01:35:02.940Z,14.45
2022-11-02T01:37:31.246Z,16.15
2022-11-02T01:39:59.455Z,11.68
2022-11-02T01:42:28.615Z,21.02
2022-11-02T01:44:57.741Z,13.05
2022-11-02T01:47:35.135Z,12.43
2022-11-02T01:50:16.780Z,14.15
2022-11-02T01:52:44.931Z,14.57
2022-11-02T01:55:16.604Z,13.75
2022-11-02T02:00:19.212Z,16.25
2022-11-02T02:03:14.961Z,11.43
2022-11-02T02:05:51.108Z,9.05
2022-11-02T02:08:23.978Z,13.00
2022-11-02T02:10:57.007Z,11.10
2022-11-02T02:13:28.582Z,10.77
2022-11-02T02:16:21.036Z,13.35
2022-11-02T02:18:55.691Z,12.65
2022-11-02T02:21:45.794Z,11.00
2022-11-02T02:24:45.066Z,13.35
2022-11-02T02:27:53.865Z,11.63
2022-11-02T02:30:22.188Z,14.63
2022-11-02T02:32:55.886Z,14.30
2022-11-02T02:35:59.032Z,16.88
2022-11-02T02:38:33.442Z,14.73
2022-11-02T02:41:16.099Z,13.73
2022-11-02T02:43:50.465Z,14.88
2022-11-02T02:46:42.854Z,13.82
2022-11-02T02:49:18.424Z,15.52
2022-11-02T02:51:47.682Z,14.13
2022-11-02T02:54:31.366Z,14.98
2022-11-02T02:59:44.220Z,13.43
2022-11-02T03:02:25.480Z,12.80
2022-11-02T03:04:54.370Z,14.43
2022-11-02T03:07:33.954Z,12.75
2022-11-02T03:10:25.753Z,13.20
2022-11-02T03:12:54.552Z,9.23
2022-11-02T03:15:32.335Z,13.20
2022-11-02T03:18:10.383Z,13.27
2022-11-02T03:20:58.610Z,15.50
2022-11-02T03:23:33.212Z,22.05
2022-11-02T03:26:15.333Z,13.63
2022-11-02T03:29:07.093Z,12.88
2022-11-02T03:32:00.204Z,10.98
2022-11-02T03:34:39.205Z,11.43
2022-11-02T03:37:17.325Z,16.98
2022-11-02T03:39:53.383Z,15.15
2022-11-02T03:42:26.665Z,13.70
2022-11-02T03:45:02.125Z,13.63
2022-11-02T03:47:34.192Z,11.25
2022-11-02T03:50:09.203Z,9.65
2022-11-02T03:52:41.935Z,11.73
2022-11-02T03:55:20.635Z,14.52
2022-11-02T03:57:53.869Z,11.82
2022-11-02T04:00:33.415Z,20.20
2022-11-02T04:03:09.088Z,13.07
2022-11-02T04:05:42.576Z,13.65
2022-11-02T04:08:42.457Z,10.18
2022-11-02T04:11:31.379Z,12.60
2022-11-02T04:14:24.711Z,12.73
2022-11-02T04:17:15.915Z,15.88
2022-11-02T04:19:51.543Z,15.23
2022-11-02T04:22:41.153Z,15.25
2022-11-02T04:25:15.764Z,13.82
2022-11-02T04:27:53.645Z,12.35
2022-11-02T04:30:26.581Z,15.82
2022-11-02T04:33:15.107Z,13.30
2022-11-02T04:35:50.675Z,9.48
2022-11-02T04:38:38.759Z,13.10
2022-11-02T04:41:37.775Z,17.40
2022-11-02T04:44:11.883Z,14.05
2022-11-02T04:46:42.111Z,18.02
2022-11-02T04:49:12.237Z,17.23
2022-11-02T04:51:44.548Z,14.57
2022-11-02T04:54:17.351Z,12.18
2022-11-02T04:56:46.086Z,16.70
2022-11-02T04:59:15.053Z,12.88
2022-11-02T05:01:43.626Z,16.38
2022-11-02T05:04:12.158Z,13.02
2022-11-02T05:06:41.314Z,12.23
2022-11-02T05:09:10.758Z,10.40
2022-11-02T05:11:42.960Z,19.60
2022-11-02T05:14:11.117Z,15.52
2022-11-02T05:16:39.280Z,15.77
2022-11-02T05:19:10.971Z,15.02
2022-11-02T05:21:40.725Z,10.25
2022-11-02T05:24:10.279Z,16.33
2022-11-02T05:26:38.459Z,20.25
2022-11-02T05:29:07.429Z,19.77
2022-11-02T05:31:35.935Z,16.63
2022-11-02T05:34:04.289Z,11.25
2022-11-02T05:36:32.531Z,11.60
2022-11-02T05:39:00.951Z,20.13
2022-11-02T05:41:29.412Z,15.32
2022-11-02T05:43:59.986Z,11.90
2022-11-02T05:46:30.134Z,11.43
2022-11-02T05:48:58.241Z,14.93
2022-11-02T05:51:26.490Z,12.40
2022-11-02T05:53:54.627Z,7.97
2022-11-02T05:56:25.263Z,13.57
2022-11-02T05:58:55.348Z,14.43
2022-11-02T06:01:23.665Z,17.73
2022-11-02T06:03:53.796Z,11.82
2022-11-02T06:06:22.679Z,15.13
2022-11-02T06:08:51.996Z,15.02
2022-11-02T06:11:20.406Z,12.73
2022-11-02T06:13:51.063Z,11.77
2022-11-02T06:16:22.949Z,15.85
2022-11-02T06:18:52.079Z,17.53
2022-11-02T06:21:20.238Z,18.75
2022-11-02T06:23:51.663Z,17.50
2022-11-02T06:26:20.998Z,17.83
2022-11-02T06:28:49.185Z,21.23
2022-11-02T06:31:17.555Z,16.30
2022-11-02T06:33:46.133Z,15.60
2022-11-02T06:36:14.340Z,14.02
2022-11-02T06:38:42.624Z,14.75
2022-11-02T06:41:10.886Z,18.05
2022-11-02T06:43:40.997Z,13.48
2022-11-02T06:46:09.464Z,13.90
2022-11-02T06:48:37.699Z,19.13
2022-11-02T06:51:06.526Z,19.00
2022-11-02T06:53:34.749Z,18.30
2022-11-02T06:56:03.182Z,19.00
2022-11-02T06:58:31.933Z,17.40
2022-11-02T07:01:07.663Z,12.73
2022-11-02T07:03:36.597Z,13.18
2022-11-02T07:06:08.427Z,11.80
2022-11-02T07:08:39.424Z,17.25
2022-11-02T07:11:07.715Z,18.40
2022-11-02T07:13:36.082Z,18.67
2022-11-02T07:16:04.381Z,16.58
2022-11-02T07:18:32.616Z,18.15
2022-11-02T07:21:01.616Z,20.67
2022-11-02T07:23:30.181Z,24.42
2022-11-02T07:25:58.407Z,20.13
2022-11-02T07:28:26.571Z,24.10
2022-11-02T07:30:55.502Z,17.95
2022-11-02T07:33:23.723Z,15.63
2022-11-02T07:35:52.404Z,18.25
2022-11-02T07:38:20.535Z,17.05
2022-11-02T07:40:52.835Z,17.77
2022-11-02T07:43:20.985Z,17.20
2022-11-02T07:46:15.100Z,18.60
2022-11-02T07:48:43.234Z,17.85
2022-11-02T07:51:11.385Z,18.17
2022-11-02T07:53:39.764Z,18.80
2022-11-02T07:56:08.335Z,19.88
2022-11-02T07:58:36.456Z,22.20
2022-11-02T08:01:05.056Z,15.30
2022-11-02T08:03:33.241Z,18.75
2022-11-02T08:06:04.707Z,20.60
2022-11-02T08:08:32.808Z,16.95
2022-11-02T08:11:06.474Z,18.95
2022-11-02T08:13:35.566Z,19.73
2022-11-02T08:16:04.232Z,15.55
2022-11-02T08:18:32.874Z,23.90
2022-11-02T08:21:01.273Z,20.45
2022-11-02T08:23:32.034Z,19.20
2022-11-02T08:26:00.584Z,17.63
2022-11-02T08:28:32.120Z,23.98
2022-11-02T08:31:00.334Z,23.77
2022-11-02T08:33:28.783Z,28.17
2022-11-02T08:36:03.854Z,27.52
2022-11-02T08:38:32.625Z,23.25
2022-11-02T08:41:00.783Z,22.48
2022-11-02T08:43:32.191Z,30.08
2022-11-02T08:46:14.357Z,26.75
2022-11-02T08:48:43.670Z,28.45
2022-11-02T08:51:12.167Z,25.98
2022-11-02T08:53:40.303Z,26.23
2022-11-02T08:56:08.633Z,27.48
2022-11-02T08:58:38.288Z,26.23
2022-11-02T09:01:06.620Z,26.73
2022-11-02T09:03:34.763Z,26.40
2022-11-02T09:06:03.128Z,26.75
2022-11-02T09:08:31.740Z,30.77
2022-11-02T09:11:01.835Z,31.08
2022-11-02T09:13:30.739Z,28.05
2022-11-02T09:16:00.218Z,36.88
2022-11-02T09:18:28.632Z,26.35
2022-11-02T09:20:57.122Z,32.45
2022-11-02T09:23:25.267Z,33.72
2022-11-02T09:25:53.808Z,28.67
2022-11-02T09:28:21.968Z,28.80
2022-11-02T09:30:50.343Z,29.17
2022-11-02T09:33:18.755Z,33.05
2022-11-02T09:35:49.000Z,29.30
2022-11-02T09:38:21.007Z,26.92
2022-11-02T09:40:59.963Z,34.38
2022-11-02T09:43:32.604Z,34.03
2022-11-02T09:46:17.938Z,26.73
2022-11-02T09:49:03.249Z,29.17
2022-11-02T09:51:38.977Z,24.52
2022-11-02T09:54:17.945Z,34.65
2022-11-02T09:56:47.734Z,27.77
2022-11-02T09:59:22.412Z,27.48
2022-11-02T10:01:56.766Z,28.05
2022-11-02T10:04:43.435Z,31.15
2022-11-02T10:07:36.432Z,25.38
2022-11-02T10:10:13.070Z,29.33
2022-11-02T10:13:15.299Z,29.60
2022-11-02T10:16:30.042Z,38.78
2022-11-02T10:18:58.241Z,28.90
2022-11-02T10:21:38.848Z,36.78
2022-11-02T10:24:48.341Z,38.70
2022-11-02T10:27:27.223Z,40.65
2022-11-02T10:29:59.289Z,43.22
2022-11-02T10:32:27.509Z,37.95
2022-11-02T10:34:59.340Z,39.58
2022-11-02T10:38:14.810Z,41.25
2022-11-02T10:41:01.544Z,36.63
2022-11-02T10:43:52.782Z,41.17
2022-11-02T10:47:02.626Z,40.85
2022-11-02T10:50:14.488Z,42.65
2022-11-02T10:52:47.774Z,40.00
2022-11-02T10:58:14.550Z,44.05
2022-11-02T11:00:44.615Z,41.67
2022-11-02T11:03:15.457Z,43.13
2022-11-02T11:06:03.685Z,42.45
2022-11-02T11:08:42.733Z,42.13
2022-11-02T11:11:21.606Z,38.22
2022-11-02T11:20:35.393Z,39.85
2022-11-02T11:25:40.096Z,38.40
2022-11-02T11:28:26.542Z,32.88
2022-11-02T11:31:17.468Z,31.67
2022-11-02T11:33:55.099Z,38.58
2022-11-02T11:36:31.230Z,32.75
2022-11-02T11:39:27.579Z,34.30
2022-11-02T11:41:56.467Z,32.60
2022-11-02T11:44:25.500Z,36.75
2022-11-02T11:46:59.178Z,38.47
2022-11-02T11:52:33.646Z,42.33
2022-11-02T11:55:20.386Z,36.67
2022-11-02T11:58:05.043Z,35.50
2022-11-02T12:00:34.514Z,31.98
2022-11-02T12:03:11.822Z,38.35
2022-11-02T12:06:01.280Z,36.85
2022-11-02T12:08:50.764Z,40.08
2022-11-02T12:11:33.773Z,33.30
2022-11-02T12:14:10.858Z,34.63
2022-11-02T12:17:14.544Z,35.03
2022-11-02T12:20:11.927Z,36.35
2022-11-02T12:22:52.149Z,42.88
2022-11-02T12:25:28.991Z,39.72
2022-11-02T12:28:12.609Z,42.88
2022-11-02T12:33:50.680Z,39.70
2022-11-02T12:36:34.210Z,46.25
2022-11-02T12:42:02.819Z,38.80
2022-11-02T12:44:56.759Z,42.53
2022-11-02T12:50:19.912Z,36.65
2022-11-02T12:53:21.542Z,44.70
2022-11-02T12:55:54.602Z,44.22
2022-11-02T12:58:27.401Z,41.05
2022-11-02T13:01:27.523Z,48.05
2022-11-02T13:04:28.097Z,45.28
2022-11-02T13:07:05.473Z,47.88
2022-11-02T13:09:51.496Z,42.65
2022-11-02T13:12:23.240Z,48.47
2022-11-02T13:14:54.692Z,46.15
2022-11-02T13:17:25.794Z,41.08
2022-11-02T13:20:14.007Z,49.50
2022-11-02T13:23:39.723Z,46.80
2022-11-02T13:26:19.119Z,49.15
2022-11-02T13:28:56.111Z,49.95
2022-11-02T13:31:53.458Z,48.88
2022-11-02T13:34:35.950Z,48.95
2022-11-02T13:37:19.203Z,54.28
2022-11-02T13:39:53.200Z,47.65
2022-11-02T13:42:32.336Z,47.45
2022-11-02T13:45:15.372Z,45.75
2022-11-02T13:48:05.985Z,48.83
2022-11-02T13:50:39.540Z,48.85
2022-11-02T13:55:46.239Z,47.63
2022-11-02T13:58:33.112Z,55.80
2022-11-02T14:01:08.998Z,53.75
2022-11-02T14:03:49.316Z,49.85
2022-11-02T14:06:19.488Z,48.55
2022-11-02T14:09:04.523Z,51.42
2022-11-02T14:11:40.242Z,51.33
2022-11-02T14:14:19.990Z,51.58
2022-11-02T14:16:51.375Z,52.42
2022-11-02T14:19:42.830Z,59.95
2022-11-02T14:22:16.556Z,53.03
2022-11-02T14:24:49.386Z,57.35
2022-11-02T14:27:19.092Z,54.40
2022-11-02T14:29:47.308Z,51.65
2022-11-02T14:32:21.050Z,57.10
2022-11-02T14:34:52.263Z,56.08
2022-11-02T14:38:03.072Z,53.30
2022-11-02T14:40:54.625Z,56.38
2022-11-02T14:43:44.460Z,58.53
2022-11-02T14:46:40.296Z,56.72
2022-11-02T14:49:20.926Z,56.55
2022-11-02T14:52:04.556Z,54.55
2022-11-02T14:55:01.907Z,60.95
2022-11-02T14:57:35.213Z,55.50
2022-11-02T15:00:17.454Z,58.15
2022-11-02T15:02:46.122Z,59.67
2022-11-02T15:05:40.581Z,57.90
2022-11-02T15:08:23.522Z,58.03
2022-11-02T15:10:51.746Z,67.00
2022-11-02T15:13:19.841Z,60.17
2022-11-02T15:15:50.969Z,57.85
2022-11-02T15:18:31.252Z,64.45
2022-11-02T15:21:11.637Z,53.53
2022-11-02T15:24:17.215Z,62.70
2022-11-02T15:26:57.636Z,63.65
2022-11-02T15:29:40.890Z,58.10
2022-11-02T15:32:22.390Z,63.03
2022-11-02T15:34:53.820Z,60.28
2022-11-02T15:37:50.482Z,64.75
2022-11-02T15:40:27.692Z,63.90
2022-11-02T15:43:13.906Z,60.75
2022-11-02T15:46:12.026Z,66.88
2022-11-02T15:49:09.267Z,66.55
2022-11-02T15:52:04.830Z,68.22
2022-11-02T15:55:10.529Z,64.18
2022-11-02T15:58:03.933Z,61.63
2022-11-02T16:00:32.281Z,63.00
2022-11-02T16:03:06.461Z,67.15
2022-11-02T16:05:44.140Z,62.13
2022-11-02T16:08:37.841Z,64.82
2022-11-02T16:11:19.389Z,61.40
2022-11-02T16:14:08.043Z,64.25
2022-11-02T16:16:50.137Z,69.97
2022-11-02T16:19:20.710Z,58.45
2022-11-02T16:21:54.073Z,62.60
2022-11-02T16:24:25.455Z,64.18
2022-11-02T16:26:54.366Z,55.38
2022-11-02T16:29:32.655Z,66.22
2022-11-02T16:32:02.372Z,62.45
2022-11-02T16:34:33.945Z,61.88
2022-11-02T16:37:10.075Z,66.43
2022-11-02T16:39:42.123Z,72.70
2022-11-02T16:42:21.479Z,69.32
2022-11-02T16:45:01.166Z,68.43
2022-11-02T16:47:38.664Z,64.35
2022-11-02T16:50:27.885Z,64.90
2022-11-02T16:53:02.490Z,69.57
2022-11-02T16:55:38.362Z,68.47
2022-11-02T16:58:09.373Z,70.57
2022-11-02T17:00:37.818Z,60.60
2022-11-02T17:03:14.489Z,60.65
2022-11-02T17:05:48.564Z,59.28
2022-11-02T17:08:37.837Z,64.43
2022-11-02T17:11:13.531Z,58.15
2022-11-02T17:13:56.487Z,62.50
2022-11-02T17:16:24.757Z,69.15
2022-11-02T17:18:52.905Z,64.00
2022-11-02T17:21:28.702Z,62.88
2022-11-02T17:23:58.854Z,61.30
2022-11-02T17:26:30.083Z,62.05
2022-11-02T17:29:27.815Z,58.03
2022-11-02T17:31:58.608Z,57.42
2022-11-02T17:34:27.610Z,59.08
2022-11-02T17:36:56.045Z,63.67
2022-11-02T17:39:24.177Z,55.50
2022-11-02T17:42:16.455Z,58.05
2022-11-02T17:44:47.726Z,55.15
2022-11-02T17:47:20.074Z,60.88
2022-11-02T17:49:48.226Z,55.65
2022-11-02T17:52:16.930Z,58.75
2022-11-02T17:54:45.121Z,54.50
2022-11-02T17:57:14.974Z,53.67
2022-11-02T17:59:43.112Z,54.05
2022-11-02T18:02:16.126Z,54.67
2022-11-02T18:07:17.646Z,61.95
2022-11-02T18:09:45.730Z,54.05
2022-11-02T18:12:14.967Z,56.92
2022-11-02T18:14:43.599Z,55.53
2022-11-02T18:17:11.724Z,60.75
2022-11-02T18:19:39.950Z,52.42
2022-11-02T18:22:11.998Z,54.13
2022-11-02T18:24:40.200Z,54.40
2022-11-02T18:27:08.418Z,58.15
2022-11-02T18:29:36.675Z,55.95
2022-11-02T18:32:04.971Z,58.58
2022-11-02T18:34:33.140Z,54.22
2022-11-02T18:37:01.362Z,59.28
2022-11-02T18:39:29.553Z,63.90
2022-11-02T18:41:57.802Z,60.00
2022-11-02T18:44:25.989Z,59.20
2022-11-02T18:46:55.066Z,65.80
2022-11-02T18:49:23.186Z,69.22
2022-11-02T18:51:51.582Z,63.67
2022-11-02T18:54:22.470Z,58.60
2022-11-02T18:56:50.601Z,72.55
2022-11-02T18:59:18.841Z,64.90
2022-11-02T19:01:47.278Z,64.07
2022-11-02T19:04:17.660Z,65.05
2022-11-02T19:07:04.475Z,61.25
2022-11-02T19:09:33.501Z,67.55
2022-11-02T19:12:01.775Z,60.08
2022-11-02T19:14:38.729Z,68.47
2022-11-02T19:17:08.260Z,66.00
2022-11-02T19:19:45.300Z,68.72
2022-11-02T19:22:14.906Z,63.30
2022-11-02T19:24:43.192Z,66.95
2022-11-02T19:27:17.905Z,64.80
2022-11-02T19:29:46.277Z,65.32
2022-11-02T19:32:14.620Z,71.40
2022-11-02T19:34:43.060Z,68.85
2022-11-02T19:37:11.731Z,70.43
2022-11-02T19:39:40.014Z,70.40
2022-11-02T19:42:08.271Z,62.13
2022-11-02T19:44:42.295Z,61.28
2022-11-02T19:47:11.150Z,60.38
2022-11-02T19:49:39.270Z,56.28
2022-11-02T19:52:07.397Z,61.83
2022-11-02T19:54:35.571Z,61.72
2022-11-02T19:57:03.730Z,59.92
2022-11-02T19:59:31.847Z,55.63
2022-11-02T20:02:00.063Z,50.17
2022-11-02T20:04:28.351Z,55.92
2022-11-02T20:06:56.510Z,62.03
2022-11-02T20:09:24.649Z,67.68
2022-11-02T20:11:52.820Z,58.42
2022-11-02T20:14:20.967Z,66.47
2022-11-02T20:16:58.589Z,67.75
2022-11-02T20:19:32.642Z,69.78
2022-11-02T20:22:00.868Z,65.75
2022-11-02T20:24:29.129Z,65.28
2022-11-02T20:27:02.678Z,64.85
2022-11-02T20:29:30.883Z,63.10
2022-11-02T20:31:59.052Z,62.28
2022-11-02T20:34:27.528Z,58.67
2022-11-02T20:36:55.724Z,63.35
2022-11-02T20:39:23.869Z,66.35
2022-11-02T20:41:56.513Z,73.55
2022-11-02T20:44:25.951Z,64.10
2022-11-02T20:46:54.337Z,60.45
2022-11-02T20:49:48.615Z,63.08
2022-11-02T20:52:12.130Z,62.13
2022-11-02T20:54:40.439Z,65.25
2022-11-02T20:57:09.521Z,65.38
2022-11-02T20:59:38.835Z,57.85
2022-11-02T21:02:09.416Z,59.42
2022-11-02T21:04:38.818Z,58.00
2022-11-02T21:07:09.015Z,61.85
2022-11-02T21:09:37.283Z,57.40
2022-11-02T21:12:25.341Z,60.00
2022-11-02T21:14:54.800Z,57.60
2022-11-02T21:17:23.419Z,48.80
2022-11-02T21:19:58.017Z,53.40
2022-11-02T21:22:37.391Z,48.25
2022-11-02T21:25:08.351Z,47.63
2022-11-02T21:27:36.522Z,45.17
2022-11-02T21:30:06.000Z,48.17
2022-11-02T21:32:34.292Z,45.80
2022-11-02T21:35:02.481Z,44.95
2022-11-02T21:37:31.628Z,48.53
2022-11-02T21:39:59.759Z,44.00
2022-11-02T21:42:30.221Z,39.40
2022-11-02T21:44:58.306Z,42.17
2022-11-02T21:47:29.333Z,43.30
2022-11-02T21:49:57.460Z,42.03
2022-11-02T21:52:25.587Z,46.80
2022-11-02T21:54:53.827Z,46.65
2022-11-02T21:57:23.111Z,50.55
2022-11-02T21:59:51.233Z,56.40
2022-11-02T22:02:19.552Z,66.28
2022-11-02T22:04:53.365Z,60.15
2022-11-02T22:07:24.215Z,64.75
2022-11-02T22:09:52.540Z,56.58
2022-11-02T22:12:52.305Z,56.35
2022-11-02T22:15:20.722Z,59.58
2022-11-02T22:17:50.299Z,56.90
2022-11-02T22:20:18.572Z,66.35
2022-11-02T22:22:46.739Z,65.22
2022-11-02T22:25:14.953Z,65.63
2022-11-02T22:27:43.103Z,63.65
2022-11-02T22:30:11.913Z,66.85
2022-11-02T22:32:40.021Z,58.08
2022-11-02T22:35:08.467Z,65.45
2022-11-02T22:37:55.383Z,67.15
2022-11-02T22:40:23.619Z,64.28
2022-11-02T22:42:57.328Z,61.17
2022-11-02T22:45:25.448Z,63.45
2022-11-02T22:47:53.575Z,57.03
2022-11-02T22:50:23.803Z,58.05
2022-11-02T22:52:55.700Z,58.80
2022-11-02T22:55:23.911Z,56.22
2022-11-02T22:57:58.786Z,62.85
2022-11-02T23:00:28.182Z,62.63
2022-11-02T23:02:56.359Z,61.55
2022-11-02T23:05:24.648Z,59.38
2022-11-02T23:07:52.776Z,61.10
2022-11-02T23:10:39.628Z,57.17
2022-11-02T23:13:08.159Z,60.25
2022-11-02T23:15:36.811Z,54.53
2022-11-02T23:18:05.017Z,47.17
2022-11-02T23:20:33.109Z,49.70
2022-11-02T23:23:19.967Z,51.67
2022-11-02T23:25:57.978Z,50.67
2022-11-02T23:28:44.835Z,46.17
2022-11-02T23:31:31.437Z,50.67
2022-11-02T23:33:59.539Z,53.10
2022-11-02T23:36:27.679Z,58.35
2022-11-02T23:39:14.189Z,50.00
2022-11-02T23:41:42.329Z,60.53
2022-11-02T23:44:14.450Z,54.58
2022-11-02T23:46:44.744Z,50.42
2022-11-02T23:49:13.655Z,52.50
2022-11-02T23:52:00.487Z,53.72
2022-11-02T23:54:47.090Z,52.33
2022-11-02T23:57:15.252Z,53.30
2022-11-02T23:59:43.418Z,65.75
